Portada
METAR-TAF:

METAR-TAF

Aeroports :

Saipan, Illes Mariannes, Estats Units d'Amèrica

latitud: 15-07N, longitud: 145-44E, altitud: 66 m

Observació

L'informe es va fer fa 39 minuts, a les 09:54 UTC
Vent 17 kt del Est
Temperatura 29°C
Humitat 84%
Pressió 1012 hPa
Visibilitat: 16.1 km
Núvols disperses a una alçada de 2100 ft

METAR: PGSN 060954Z 08017KT 10SM SCT021 29/26 A2989 RMK AO2 SLP142 T02890256 $

Hora: 20:33 (10:33 UTC)

Pronòstic

L'informe es va fer fa 4 hores i 53 minuts, a les 05:40 UTC
Pronòstic vàlid del 06 a les 06 UTC al 07 a les 06 UTC
Vent 18 kt del Est amb ràfegues de 28 kt
Visibilitat: 10 km
Núvols disperses a una alçada de 1800 ft
Núvols disperses a una alçada de 5000 ft
xàfecs en les proximitats
A partir de les 06 a les 0900 UTC
Vent 15 kt del Est
Visibilitat: 10 km
Núvols disperses a una alçada de 2000 ft
Núvols disperses a una alçada de 5000 ft
xàfecs en les proximitats

TAF: PGSN 060540Z 0606/0706 08018G28KT P6SM VCSH SCT018 SCT050 FM060900 08015KT P6SM VCSH SCT020 SCT050

Observacions i pronòstics meteorològics de més de 4000 aeroports (METAR i TAF).

Les estacions disponibles són els punts grocs i vermells al mapa.

Posi el ratolí al punt desitjat per veure el nom de l'estació.

Feu clic per veure les observacions i els pronòstics meteorològics.

Per canviar el mapa: feu clic els botons verds amb una creu de color negre per apropar; al botó verd amb un guió per allunyar la imatge; o en les fletxes verdes per a mapes adjacents.


METAR-TAF: